Main page
METAR-TAF:

METAR-TAF

Airports :

Athens International Airport

Athens, Greece

latitude: 37-56N, longitude: 023-56E, elevation: 94 m

Current weather observation

The report was made 31 minutes ago, at 18:20 UTC
Wind 11 kt from the North
Temperature 14°C
Humidity 44%
Pressure 1018 hPa
Visibility 10 km or more
no clouds below 1500 m and no cumulonimbus

METAR: LGAV 231820Z 35011KT CAVOK 14/02 Q1018 NOSIG

Time: 20:51 (18:51 UTC)

Forecast

The report was made 1 hour and 51 minutes ago, at 17:00 UTC
Forecast valid from 23 at 18 UTC to 24 at 18 UTC
Wind 15 kt from the North/Northeast
Visibility 10 km or more
Few clouds at a height of 3000 ft
Temporary
from 23 at 18 UTC to 23 at 22 UTC
Wind 20 kt from the North/Northeast with gusts up to 30 kt
Temporary
from 24 at 09 UTC to 24 at 18 UTC
Wind 20 kt from the North with gusts up to 30 kt

TAF: LGAV 231700Z 2318/2418 02015KT 9999 FEW030 TEMPO 2318/2322 02020G30KT TEMPO 2409/2418 36020G30KT

Weather observations and forecasts of more than 4000 airports (METAR and TAF reports).

The available stations are represented by yellow and red dots on the map.

Hover mouse over dot to see the name of the station.

Then click to see weather observations and forecasts.

To change the map : click on the green buttons with a black cross to zoom in, on the green button with a dash to zoom out, or on the green arrows for adjacent maps.


METAR-TAF: